Main page
METAR-TAF:

METAR-TAF

Airports :

Lydd, England

Lydd Airport

latitude: 50-57N, longitude: 000-56E, elevation: 3 m

Current weather observation

The report was made 23 minutes ago, at 18:20 UTC
Wind 18 kt from the East/Northeast
Temperature 9°C
Humidity 81%
Pressure 1022 hPa
Visibility 10 km or more

METAR: EGMD 261820Z AUTO 06018KT 9999 NCD 09/06 Q1022

Time: 19:43 (18:43 UTC)

Forecast

The report was made 1 hour and 41 minutes ago, at 17:02 UTC
Forecast valid from 26 at 18 UTC to 27 at 03 UTC
Wind 15 kt from the Northeast
Visibility 10 km or more
no clouds below 1500 m and no cumulonimbus

TAF: EGMD 261702Z 2618/2703 05015KT CAVOK

Weather observations and forecasts of more than 4000 airports (METAR and TAF reports).

The available stations are represented by yellow and red dots on the map.

Hover mouse over dot to see the name of the station.

Then click to see weather observations and forecasts.

To change the map : click on the green buttons with a black cross to zoom in, on the green button with a dash to zoom out, or on the green arrows for adjacent maps.


METAR-TAF: